Time;durP1;ratioP1;P1;durP2;ratioP2;P2;SDS_P1;SDS_P2;PMS_P1;PMS_P2;Temp;Humidity;BMP_temperature;BMP_pressure;BME280_temperature;BME280_humidity;BME280_pressure;Samples;Min_cycle;Max_cycle;Signal;HPM_P1;HPM_P2
2023/02/11 00:01:36;;;;;;;45.70;20.67;;;6.80;99.90;;;;;;5091169;28;20170;-58
2023/02/11 00:04:04;;;;;;;47.43;21.93;;;6.80;99.90;;;;;;5092253;28;20024;-58
2023/02/11 00:06:31;;;;;;;42.70;20.13;;;6.80;99.90;;;;;;5092542;28;20507;-58
2023/02/11 00:08:58;;;;;;;39.93;19.90;;;6.80;99.90;;;;;;5092259;28;20030;-58
2023/02/11 00:11:29;;;;;;;43.67;20.97;;;6.80;99.90;;;;;;5092305;28;20035;-58
2023/02/11 00:14:00;;;;;;;46.27;21.17;;;6.80;99.90;;;;;;5092175;28;20101;-58
2023/02/11 00:16:26;;;;;;;45.23;20.13;;;6.80;99.90;;;;;;5092123;28;20028;-58
2023/02/11 00:18:52;;;;;;;37.77;20.00;;;6.80;99.90;;;;;;5091963;28;20510;-58
2023/02/11 00:21:24;;;;;;;37.97;19.20;;;6.80;99.90;;;;;;5092387;28;20047;-58
2023/02/11 00:23:50;;;;;;;39.47;19.50;;;6.80;99.90;;;;;;5092096;28;20031;-57
2023/02/11 00:26:21;;;;;;;41.10;19.47;;;6.80;99.90;;;;;;5092118;28;20032;-58
2023/02/11 00:28:49;;;;;;;36.10;18.13;;;6.90;99.90;;;;;;5091723;28;20024;-58
2023/02/11 00:31:17;;;;;;;35.13;19.40;;;6.90;99.90;;;;;;5090588;28;20034;-58
2023/02/11 00:33:43;;;;;;;38.40;19.57;;;6.90;99.90;;;;;;5091732;28;20036;-58
2023/02/11 00:36:15;;;;;;;39.10;18.50;;;6.80;99.90;;;;;;5090579;28;20074;-58
2023/02/11 00:38:46;;;;;;;39.30;19.53;;;6.90;99.90;;;;;;5090373;28;20041;-58
2023/02/11 00:41:13;;;;;;;33.17;18.20;;;6.90;99.90;;;;;;5091740;28;20040;-58
2023/02/11 00:43:39;;;;;;;39.07;18.10;;;6.80;99.90;;;;;;5090235;28;20055;-58
2023/02/11 00:46:05;;;;;;;38.07;18.90;;;6.80;99.90;;;;;;5090357;28;20028;-57
2023/02/11 00:48:31;;;;;;;41.03;18.83;;;6.80;99.90;;;;;;5091397;28;20435;-57
2023/02/11 00:50:59;;;;;;;36.93;18.20;;;6.90;99.90;;;;;;5091596;28;20089;-58
2023/02/11 00:53:25;;;;;;;32.50;17.17;;;6.90;99.90;;;;;;5091429;28;20036;-58
2023/02/11 00:55:51;;;;;;;38.50;17.13;;;6.90;99.90;;;;;;5090187;28;20036;-57
2023/02/11 00:58:17;;;;;;;38.47;17.50;;;6.90;99.90;;;;;;5091074;28;20046;-58
2023/02/11 01:00:43;;;;;;;33.20;16.63;;;6.90;99.90;;;;;;5091241;28;20488;-58
2023/02/11 01:03:08;;;;;;;32.57;17.43;;;6.90;99.90;;;;;;5089796;28;20484;-58
2023/02/11 01:05:34;;;;;;;36.63;16.53;;;6.90;99.90;;;;;;5089911;28;20434;-58
2023/02/11 01:08:00;;;;;;;34.10;17.63;;;6.90;99.90;;;;;;5091019;28;20108;-57
2023/02/11 01:10:27;;;;;;;31.90;17.23;;;6.90;99.90;;;;;;5091226;28;20031;-58
2023/02/11 01:12:53;;;;;;;38.13;17.60;;;6.80;99.90;;;;;;5091266;28;20089;-58
2023/02/11 01:15:20;;;;;;;33.17;17.07;;;6.80;99.90;;;;;;5091005;28;20039;-57
2023/02/11 01:17:46;;;;;;;32.33;17.13;;;6.80;99.90;;;;;;5089845;28;20069;-57
2023/02/11 01:20:24;;;;;;;30.97;15.97;;;6.80;99.90;;;;;;5090985;28;20032;-57
2023/02/11 01:22:49;;;;;;;36.13;16.87;;;6.80;99.90;;;;;;5091493;28;20452;-58
2023/02/11 01:25:15;;;;;;;36.63;16.93;;;6.80;99.90;;;;;;5090813;28;20066;-57
2023/02/11 01:27:41;;;;;;;39.27;17.10;;;6.80;99.90;;;;;;5090584;28;20028;-57
2023/02/11 01:30:09;;;;;;;35.50;16.10;;;6.80;99.90;;;;;;5090914;28;20501;-57
2023/02/11 01:32:35;;;;;;;33.20;16.83;;;6.80;99.90;;;;;;5090905;28;20036;-58
2023/02/11 01:35:01;;;;;;;29.77;16.73;;;6.80;99.90;;;;;;5089421;28;20494;-58
2023/02/11 01:37:27;;;;;;;37.33;17.80;;;6.80;99.90;;;;;;5089292;28;20031;-58
2023/02/11 01:39:53;;;;;;;34.40;17.30;;;6.70;99.90;;;;;;5089316;28;20130;-58
2023/02/11 01:42:22;;;;;;;33.97;16.37;;;6.70;99.90;;;;;;5089367;28;20032;-58
2023/02/11 01:44:53;;;;;;;35.65;16.67;;;6.70;99.90;;;;;;5090647;28;20024;-58
2023/02/11 01:47:20;;;;;;;37.37;16.70;;;6.80;99.90;;;;;;5090674;28;20023;-58
2023/02/11 01:49:52;;;;;;;39.53;17.13;;;6.80;99.90;;;;;;5089431;28;20194;-58
2023/02/11 01:52:26;;;;;;;28.40;16.20;;;6.70;99.90;;;;;;5090691;28;20031;-58
2023/02/11 01:57:47;;;;;;;31.00;16.03;;;6.80;99.90;;;;;;5090352;28;20082;-58
2023/02/11 02:00:22;;;;;;;31.15;16.17;;;6.70;99.90;;;;;;5089142;28;20039;-58
2023/02/11 02:02:54;;;;;;;35.37;16.50;;;6.70;99.90;;;;;;5089297;28;20028;-58
2023/02/11 02:05:51;;;;;;;31.90;16.40;;;6.70;99.90;;;;;;5090340;28;20024;-58
2023/02/11 02:08:32;;;;;;;32.77;16.13;;;6.70;99.90;;;;;;5088944;28;20035;-58
2023/02/11 02:11:01;;;;;;;33.23;15.47;;;6.70;99.90;;;;;;5089132;28;20028;-58
2023/02/11 02:13:30;;;;;;;35.17;16.83;;;6.70;99.90;;;;;;5090659;28;20471;-58
2023/02/11 02:16:05;;;;;;;32.65;16.77;;;6.60;99.90;;;;;;5092281;28;20461;-58
2023/02/11 02:18:34;;;;;;;36.30;16.30;;;6.60;99.90;;;;;;5094523;28;20117;-58
2023/02/11 02:21:29;;;;;;;38.77;15.37;;;6.60;99.90;;;;;;5094493;28;20032;-58
2023/02/11 02:24:25;;;;;;;31.70;15.20;;;6.60;99.90;;;;;;5056585;28;20224;-58
2023/02/11 02:26:57;;;;;;;35.40;16.20;;;6.60;99.90;;;;;;5094149;28;20016;-58
2023/02/11 02:30:00;;;;;;;31.63;15.50;;;6.60;99.90;;;;;;5094424;28;20294;-58
2023/02/11 02:33:04;;;;;;;33.93;14.00;;;6.60;99.90;;;;;;5094776;28;20055;-58
2023/02/11 02:35:50;;;;;;;34.40;14.20;;;6.60;99.90;;;;;;5072328;28;20036;-58
2023/02/11 02:38:33;;;;;;;31.97;14.57;;;6.60;99.90;;;;;;5093869;28;20028;-58
2023/02/11 02:41:20;;;;;;;33.23;15.57;;;6.60;99.90;;;;;;5094080;28;20042;-58
2023/02/11 02:43:48;;;;;;;33.07;15.07;;;6.60;99.90;;;;;;5094061;28;20032;-58
2023/02/11 02:46:33;;;;;;;32.13;14.93;;;6.50;99.90;;;;;;5094550;28;20032;-58
2023/02/11 02:48:59;;;;;;;34.27;15.50;;;6.50;99.90;;;;;;5093887;28;20096;-58
2023/02/11 02:51:47;;;;;;;31.93;15.17;;;6.50;99.90;;;;;;5093935;28;20062;-58
2023/02/11 02:54:21;;;;;;;32.20;14.80;;;6.50;99.90;;;;;;5093713;28;20028;-58
2023/02/11 02:57:08;;;;;;;30.70;14.40;;;6.40;99.90;;;;;;5093629;28;20115;-58
2023/02/11 03:00:05;;;;;;;33.87;14.70;;;6.40;99.90;;;;;;5094199;28;20111;-58
2023/02/11 03:02:38;;;;;;;31.80;15.70;;;6.40;99.90;;;;;;5093869;28;20115;-58
2023/02/11 03:05:07;;;;;;;34.33;16.00;;;6.40;99.90;;;;;;5093528;28;20032;-58
2023/02/11 03:08:08;;;;;;;31.65;16.10;;;6.40;99.90;;;;;;5093439;28;20400;-58
2023/02/11 03:10:47;;;;;;;32.90;15.23;;;6.40;99.90;;;;;;5084297;28;20064;-58
2023/02/11 03:13:18;;;;;;;31.83;15.13;;;6.40;99.90;;;;;;5093556;28;20040;-58
2023/02/11 03:15:48;;;;;;;31.57;14.40;;;6.40;99.90;;;;;;5093586;28;20036;-58
2023/02/11 03:18:18;;;;;;;36.80;15.33;;;6.40;99.90;;;;;;5093221;28;20119;-58
2023/02/11 03:20:46;;;;;;;;;;;6.40;99.90;;;;;;5093873;28;20043;-58
2023/02/11 03:23:15;;;;;;;31.13;14.30;;;6.30;99.90;;;;;;5093312;28;19915;-58
2023/02/11 03:25:51;;;;;;;33.30;15.43;;;6.40;99.90;;;;;;5093204;28;20111;-58
2023/02/11 03:28:25;;;;;;;34.17;14.73;;;6.40;99.90;;;;;;5093023;28;20089;-58
2023/02/11 03:31:15;;;;;;;31.70;15.13;;;6.40;99.90;;;;;;5093275;28;20114;-58
2023/02/11 03:34:01;;;;;;;30.67;14.90;;;6.30;99.90;;;;;;5093075;28;20032;-58
2023/02/11 03:36:37;;;;;;;32.27;15.77;;;6.30;99.90;;;;;;5093158;28;20058;-58
2023/02/11 03:39:04;;;;;;;36.73;14.63;;;6.30;99.90;;;;;;5092873;28;20111;-58
2023/02/11 03:41:33;;;;;;;31.73;15.23;;;6.30;99.90;;;;;;5092895;28;20074;-58
2023/02/11 03:44:00;;;;;;;34.03;15.80;;;6.30;99.90;;;;;;5092805;28;20027;-58
2023/02/11 03:46:36;;;;;;;34.10;16.27;;;6.30;99.90;;;;;;5092846;28;20107;-58
2023/02/11 03:49:07;;;;;;;28.57;13.97;;;6.30;99.90;;;;;;5092831;28;20373;-58
2023/02/11 03:51:34;;;;;;;35.07;15.70;;;6.30;99.90;;;;;;5092708;28;20032;-58
2023/02/11 03:54:04;;;;;;;38.13;14.70;;;6.30;99.90;;;;;;5092732;28;20475;-58
2023/02/11 03:56:36;;;;;;;31.63;15.00;;;6.30;99.90;;;;;;5092536;28;20052;-58
2023/02/11 03:59:02;;;;;;;31.63;15.10;;;6.30;99.90;;;;;;5092357;28;20032;-58
2023/02/11 04:01:28;;;;;;;32.80;15.70;;;6.30;99.90;;;;;;5092578;28;20036;-58
2023/02/11 04:03:54;;;;;;;35.83;15.37;;;6.30;99.90;;;;;;5092272;28;20373;-58
2023/02/11 04:06:19;;;;;;;32.50;14.87;;;6.30;99.90;;;;;;5092207;28;20035;-58
2023/02/11 04:08:45;;;;;;;32.50;15.50;;;6.30;99.90;;;;;;5092258;28;20115;-58
2023/02/11 04:11:11;;;;;;;35.47;16.23;;;6.30;99.90;;;;;;5092281;28;20039;-58
2023/02/11 04:13:36;;;;;;;30.63;15.23;;;6.30;99.90;;;;;;5092439;28;20039;-58
2023/02/11 04:16:02;;;;;;;34.10;16.33;;;6.20;99.90;;;;;;5092284;28;20059;-58
2023/02/11 04:18:28;;;;;;;35.77;16.63;;;6.20;99.90;;;;;;5091895;28;20036;-58
2023/02/11 04:20:53;;;;;;;31.90;16.80;;;6.20;99.90;;;;;;5092031;28;20496;-58
2023/02/11 04:23:19;;;;;;;34.27;17.03;;;6.20;99.90;;;;;;5091935;28;20031;-58
2023/02/11 04:25:45;;;;;;;33.47;16.83;;;6.20;99.90;;;;;;5092086;28;20032;-58
2023/02/11 04:28:11;;;;;;;31.13;16.77;;;6.20;99.90;;;;;;5091807;28;20054;-58
2023/02/11 04:30:36;;;;;;;37.07;18.00;;;6.20;99.90;;;;;;5092093;28;20118;-58
2023/02/11 04:33:02;;;;;;;38.27;16.93;;;6.20;99.90;;;;;;5092062;28;20030;-58
2023/02/11 04:35:28;;;;;;;38.90;17.33;;;6.10;99.90;;;;;;5091773;28;20036;-58
2023/02/11 04:37:53;;;;;;;36.13;17.87;;;6.10;99.90;;;;;;5091109;28;20480;-58
2023/02/11 04:40:19;;;;;;;38.13;18.03;;;6.20;99.90;;;;;;5091995;28;20039;-58
2023/02/11 04:42:45;;;;;;;40.63;18.17;;;6.10;99.90;;;;;;5091888;28;20024;-58
2023/02/11 04:45:10;;;;;;;37.40;17.87;;;6.20;99.90;;;;;;5091552;28;20115;-58
2023/02/11 04:47:36;;;;;;;37.97;18.30;;;6.20;99.90;;;;;;5091479;28;20110;-58
2023/02/11 04:50:03;;;;;;;42.77;18.60;;;6.10;99.90;;;;;;5091672;28;20107;-58
2023/02/11 04:52:28;;;;;;;35.27;19.37;;;6.10;99.90;;;;;;5091695;28;20040;-58
2023/02/11 04:54:54;;;;;;;41.67;18.70;;;6.10;99.90;;;;;;5091612;28;20081;-58
2023/02/11 04:57:20;;;;;;;44.73;20.40;;;6.10;99.90;;;;;;5091214;28;20035;-58
2023/02/11 04:59:45;;;;;;;41.03;19.83;;;6.10;99.90;;;;;;5091518;28;20123;-58
2023/02/11 05:02:11;;;;;;;40.67;19.43;;;6.10;99.90;;;;;;5091518;28;20046;-58
2023/02/11 05:04:37;;;;;;;47.63;20.37;;;6.10;99.90;;;;;;5091252;28;20118;-58
2023/02/11 05:07:02;;;;;;;38.27;20.37;;;6.20;99.90;;;;;;5091126;28;20523;-59
2023/02/11 05:09:28;;;;;;;46.83;21.00;;;6.10;99.90;;;;;;5091297;28;20102;-58
2023/02/11 05:11:54;;;;;;;40.37;21.07;;;6.10;99.90;;;;;;5091240;28;20051;-58
2023/02/11 05:14:19;;;;;;;45.73;21.00;;;6.10;99.90;;;;;;5091202;28;20577;-58
2023/02/11 05:16:45;;;;;;;44.43;20.37;;;6.00;99.90;;;;;;5090921;28;20039;-57
2023/02/11 05:19:11;;;;;;;46.60;22.20;;;6.00;99.90;;;;;;5091076;28;20031;-58
2023/02/11 05:21:37;;;;;;;45.53;22.50;;;6.00;99.90;;;;;;5091083;28;20032;-58
2023/02/11 05:24:03;;;;;;;52.20;24.70;;;6.00;99.90;;;;;;5089613;28;20067;-58
2023/02/11 05:26:28;;;;;;;51.83;24.53;;;5.90;99.90;;;;;;5090850;28;20032;-59
2023/02/11 05:28:54;;;;;;;52.40;25.53;;;5.90;99.90;;;;;;5090992;28;20027;-58
2023/02/11 05:31:20;;;;;;;51.97;25.10;;;5.90;99.90;;;;;;5090957;28;20512;-59
2023/02/11 05:33:46;;;;;;;53.23;25.10;;;5.90;99.90;;;;;;5090871;28;20036;-58
2023/02/11 05:36:12;;;;;;;58.73;24.83;;;5.90;99.90;;;;;;5091053;28;20032;-58
2023/02/11 05:38:39;;;;;;;57.93;25.97;;;6.00;99.90;;;;;;5090871;28;20028;-58
2023/02/11 05:41:05;;;;;;;48.30;24.47;;;5.90;99.90;;;;;;5090875;28;20024;-58
2023/02/11 05:43:31;;;;;;;51.27;24.53;;;5.90;99.90;;;;;;5090723;28;20579;-58
2023/02/11 05:45:57;;;;;;;52.63;25.63;;;5.90;99.90;;;;;;5089573;28;20107;-58
2023/02/11 05:48:22;;;;;;;52.70;24.17;;;5.90;99.90;;;;;;5090487;28;20080;-58
2023/02/11 05:50:48;;;;;;;58.27;26.30;;;5.90;99.90;;;;;;5089792;28;20028;-58
2023/02/11 05:53:14;;;;;;;58.33;26.43;;;5.90;99.90;;;;;;5091193;28;20040;-58
2023/02/11 05:55:40;;;;;;;59.37;27.37;;;5.90;99.90;;;;;;5090637;28;20531;-58
2023/02/11 05:58:06;;;;;;;52.83;26.13;;;5.90;99.90;;;;;;5090417;28;20036;-58
2023/02/11 06:00:33;;;;;;;54.37;25.03;;;5.90;99.90;;;;;;5089225;28;20437;-58
2023/02/11 06:02:59;;;;;;;48.23;24.53;;;5.90;99.90;;;;;;5090772;28;20020;-58
2023/02/11 06:05:25;;;;;;;55.73;23.60;;;5.90;99.90;;;;;;5090449;28;20043;-58
2023/02/11 06:07:51;;;;;;;52.27;24.00;;;6.00;99.90;;;;;;5090381;28;20050;-58
2023/02/11 06:10:16;;;;;;;52.83;23.03;;;6.00;99.90;;;;;;5090568;28;20030;-58
2023/02/11 06:12:43;;;;;;;46.13;23.83;;;6.00;99.90;;;;;;5090662;28;20055;-58
2023/02/11 06:15:09;;;;;;;49.90;23.57;;;5.90;99.90;;;;;;5090442;28;20117;-58
2023/02/11 06:17:36;;;;;;;52.57;23.87;;;5.90;99.90;;;;;;5090607;28;20044;-58
2023/02/11 06:20:05;;;;;;;56.97;23.20;;;5.90;99.90;;;;;;5090597;28;20374;-58
2023/02/11 06:22:31;;;;;;;57.20;21.98;;;6.00;99.90;;;;;;5090583;28;20036;-58
2023/02/11 06:24:56;;;;;;;53.30;22.93;;;6.00;99.90;;;;;;5090369;28;20036;-58
2023/02/11 06:27:22;;;;;;;46.83;22.47;;;6.00;99.90;;;;;;5090501;28;20032;-58
2023/02/11 06:29:48;;;;;;;48.93;22.13;;;6.00;99.90;;;;;;5090566;28;20032;-58
2023/02/11 06:32:14;;;;;;;55.03;23.43;;;6.00;99.90;;;;;;5089520;28;20504;-58
2023/02/11 06:34:40;;;;;;;44.17;22.23;;;5.90;99.90;;;;;;5090538;28;20036;-58
2023/02/11 06:37:06;;;;;;;47.47;21.63;;;6.00;99.90;;;;;;5090438;28;20077;-58
2023/02/11 06:39:31;;;;;;;48.23;22.63;;;5.90;99.90;;;;;;5090568;28;20042;-58
2023/02/11 06:41:57;;;;;;;57.13;23.30;;;6.00;99.90;;;;;;5090619;28;20111;-58
2023/02/11 06:44:23;;;;;;;50.27;22.50;;;6.00;99.90;;;;;;5090330;28;20074;-58
2023/02/11 06:46:49;;;;;;;49.97;20.43;;;6.00;99.90;;;;;;5090198;28;20361;-58
2023/02/11 06:49:14;;;;;;;53.00;22.57;;;6.00;99.90;;;;;;5090443;28;20032;-60
2023/02/11 06:51:40;;;;;;;48.10;21.03;;;6.10;99.90;;;;;;5090396;28;20020;-58
2023/02/11 06:54:06;;;;;;;60.50;23.47;;;6.00;99.90;;;;;;5090381;28;20484;-58
2023/02/11 06:56:33;;;;;;;62.67;22.43;;;6.00;99.90;;;;;;5090299;28;20028;-58
2023/02/11 06:58:59;;;;;;;55.90;23.67;;;6.00;99.90;;;;;;5090209;28;20062;-58
2023/02/11 07:01:26;;;;;;;55.77;21.50;;;6.10;99.90;;;;;;5091293;28;20032;-58
2023/02/11 07:03:52;;;;;;;54.27;22.23;;;6.00;99.90;;;;;;5093896;28;20023;-58
2023/02/11 07:06:23;;;;;;;57.60;22.10;;;6.00;99.90;;;;;;5093894;28;20107;-58
2023/02/11 07:08:49;;;;;;;54.63;21.00;;;6.10;99.90;;;;;;5094037;28;20032;-58
2023/02/11 07:11:23;;;;;;;58.67;22.13;;;6.10;99.90;;;;;;5093934;28;20472;-58
2023/02/11 07:13:49;;;;;;;52.27;21.23;;;6.20;99.90;;;;;;5093770;28;20038;-58
2023/02/11 07:16:17;;;;;;;51.57;21.27;;;6.20;99.90;;;;;;5093998;28;20082;-58
2023/02/11 07:18:44;;;;;;;61.83;20.83;;;6.10;99.90;;;;;;5093591;28;20032;-58
2023/02/11 07:21:15;;;;;;;57.17;22.77;;;6.10;99.90;;;;;;5092391;28;20039;-58
2023/02/11 07:23:41;;;;;;;54.30;20.37;;;6.10;99.90;;;;;;5093610;28;20032;-58
2023/02/11 07:26:10;;;;;;;60.70;21.73;;;6.20;99.90;;;;;;5093606;28;20069;-58
2023/02/11 07:28:37;;;;;;;57.50;22.70;;;6.20;99.90;;;;;;5093380;28;20062;-58
2023/02/11 07:31:14;;;;;;;61.40;22.23;;;6.10;99.90;;;;;;5093854;28;20156;-58
2023/02/11 07:33:40;;;;;;;54.73;21.77;;;6.10;99.90;;;;;;5093391;28;20028;-58
2023/02/11 07:36:08;;;;;;;55.40;22.07;;;6.20;99.90;;;;;;5093526;28;20173;-58
2023/02/11 07:38:35;;;;;;;57.20;21.80;;;6.20;99.90;;;;;;5093045;28;20123;-58
2023/02/11 07:41:02;;;;;;;60.77;21.57;;;6.20;99.90;;;;;;5093621;28;20448;-57
2023/02/11 07:43:29;;;;;;;58.20;22.00;;;6.20;99.90;;;;;;5093012;28;20115;-58
2023/02/11 07:45:55;;;;;;;58.70;22.40;;;6.20;99.90;;;;;;5093612;28;20024;-58
2023/02/11 07:48:20;;;;;;;67.27;24.93;;;6.20;99.90;;;;;;5093016;28;20085;-58
2023/02/11 07:50:46;;;;;;;68.47;23.30;;;6.20;99.90;;;;;;5093119;28;20055;-58
2023/02/11 07:53:12;;;;;;;58.67;21.77;;;6.20;99.90;;;;;;5093119;28;20028;-58
2023/02/11 07:55:37;;;;;;;63.40;22.70;;;6.30;99.90;;;;;;5092979;28;20028;-58
2023/02/11 07:58:03;;;;;;;65.03;23.33;;;6.30;99.90;;;;;;5092718;28;20036;-57
2023/02/11 08:00:29;;;;;;;58.13;23.17;;;6.30;99.90;;;;;;5093060;28;20032;-58
2023/02/11 08:02:56;;;;;;;60.90;22.73;;;6.30;99.90;;;;;;5093169;28;20123;-58
2023/02/11 08:05:22;;;;;;;49.90;21.60;;;6.30;99.90;;;;;;5092700;28;20488;-58
2023/02/11 08:07:51;;;;;;;58.37;21.60;;;6.40;99.90;;;;;;5092589;28;20078;-58
2023/02/11 08:10:17;;;;;;;64.32;23.90;;;6.40;99.90;;;;;;5092831;28;20028;-59
2023/02/11 08:12:42;;;;;;;54.83;22.70;;;6.40;99.90;;;;;;5091999;28;20051;-59
2023/02/11 08:15:08;;;;;;;57.30;22.70;;;6.40;99.90;;;;;;5092315;28;20040;-59
2023/02/11 08:17:35;;;;;;;59.60;22.13;;;6.40;99.90;;;;;;5092369;28;20106;-59
2023/02/11 08:20:02;;;;;;;56.37;22.17;;;6.40;99.90;;;;;;5092410;28;20032;-58
2023/02/11 08:22:30;;;;;;;59.97;21.63;;;6.50;99.90;;;;;;5092504;28;20111;-58
2023/02/11 08:24:57;;;;;;;57.08;22.17;;;6.40;99.90;;;;;;5092683;28;20031;-59
2023/02/11 08:27:23;;;;;;;57.70;23.23;;;6.50;99.90;;;;;;5092189;28;20048;-59
2023/02/11 08:29:49;;;;;;;58.13;23.30;;;6.50;99.90;;;;;;5092474;28;20067;-59
2023/02/11 08:32:14;;;;;;;58.90;23.50;;;6.50;99.90;;;;;;5092372;28;20064;-59
2023/02/11 08:34:40;;;;;;;71.87;24.27;;;6.50;99.90;;;;;;5092027;28;20027;-59
2023/02/11 08:37:06;;;;;;;60.80;23.53;;;6.50;99.90;;;;;;5092230;28;20032;-59
2023/02/11 08:39:32;;;;;;;62.33;25.10;;;6.50;99.90;;;;;;5092479;28;20400;-59
2023/02/11 08:41:57;;;;;;;58.40;24.27;;;6.60;99.90;;;;;;5092313;28;20357;-59
2023/02/11 08:44:24;;;;;;;57.03;23.67;;;6.60;99.90;;;;;;5092085;28;20051;-59
2023/02/11 08:46:50;;;;;;;62.97;23.10;;;6.70;99.90;;;;;;5091897;28;20028;-59
2023/02/11 08:49:16;;;;;;;59.47;24.63;;;6.70;99.90;;;;;;5090649;28;20165;-59
2023/02/11 08:51:42;;;;;;;64.73;24.33;;;6.60;99.90;;;;;;5090978;28;20468;-59
2023/02/11 08:54:08;;;;;;;62.53;25.33;;;6.60;99.90;;;;;;5092091;28;20032;-59
2023/02/11 08:56:35;;;;;;;62.87;24.73;;;6.60;99.90;;;;;;5090510;28;20030;-59
2023/02/11 08:59:01;;;;;;;58.63;24.43;;;6.60;99.90;;;;;;5091685;28;20036;-58
2023/02/11 09:01:29;;;;;;;57.53;24.77;;;6.80;99.90;;;;;;5091849;28;20162;-58
2023/02/11 09:03:55;;;;;;;59.97;23.53;;;6.80;99.90;;;;;;5091518;28;20032;-58
2023/02/11 09:06:22;;;;;;;62.07;24.60;;;6.80;99.90;;;;;;5091546;28;20060;-58
2023/02/11 09:08:51;;;;;;;61.93;23.77;;;6.90;99.90;;;;;;5091636;28;20032;-58
2023/02/11 09:11:20;;;;;;;52.78;23.60;;;6.90;99.90;;;;;;5091787;28;20055;-58
2023/02/11 09:13:46;;;;;;;56.83;22.60;;;6.90;99.90;;;;;;5091435;28;20472;-59
2023/02/11 09:16:20;;;;;;;55.83;24.67;;;6.90;99.90;;;;;;5091631;28;20036;-59
2023/02/11 09:18:47;;;;;;;58.83;24.13;;;6.90;99.90;;;;;;5091340;28;20059;-57
2023/02/11 09:21:15;;;;;;;59.60;24.90;;;7.00;99.90;;;;;;5091449;28;20500;-58
2023/02/11 09:23:42;;;;;;;63.27;24.87;;;6.90;99.90;;;;;;5091425;28;20026;-58
2023/02/11 09:26:13;;;;;;;54.37;23.93;;;7.00;99.90;;;;;;5091265;28;20034;-58
2023/02/11 09:28:40;;;;;;;64.57;25.33;;;6.90;99.90;;;;;;5091042;28;20437;-58
2023/02/11 09:31:06;;;;;;;58.73;23.87;;;7.00;99.90;;;;;;5091179;28;20055;-58
2023/02/11 09:33:32;;;;;;;62.87;24.80;;;7.00;99.90;;;;;;5089851;28;20089;-58
2023/02/11 09:36:03;;;;;;;55.13;24.63;;;7.10;99.90;;;;;;5091232;28;20043;-58
2023/02/11 09:38:29;;;;;;;63.33;25.10;;;7.10;99.90;;;;;;5090929;28;20028;-58
2023/02/11 09:40:55;;;;;;;54.23;24.83;;;7.10;99.90;;;;;;5090824;28;20176;-58
2023/02/11 09:43:41;;;;;;;58.50;24.63;;;7.10;99.90;;;;;;5090805;28;20020;-58
2023/02/11 09:46:14;;;;;;;65.80;25.40;;;7.10;99.90;;;;;;5090895;28;20032;-59
2023/02/11 09:48:42;;;;;;;65.27;25.60;;;7.10;99.90;;;;;;5090854;28;20024;-58
2023/02/11 09:51:19;;;;;;;56.00;24.07;;;7.20;99.90;;;;;;5090914;28;20430;-58
2023/02/11 09:53:50;;;;;;;57.07;25.27;;;7.20;99.90;;;;;;5090744;28;20035;-58
2023/02/11 09:56:16;;;;;;;61.03;25.57;;;7.20;99.90;;;;;;5090705;28;20036;-58
2023/02/11 09:58:43;;;;;;;66.47;25.23;;;7.20;99.90;;;;;;5103273;22;20044;-57
2023/02/11 10:01:33;;;;;;;63.37;25.33;;;7.30;99.90;;;;;;5090404;28;20113;-53
2023/02/11 10:04:30;;;;;;;62.10;25.37;;;7.40;99.90;;;;;;5089971;28;20024;-56
2023/02/11 10:07:05;;;;;;;61.47;24.80;;;7.40;99.90;;;;;;5089816;28;20115;-55
2023/02/11 10:09:50;;;;;;;61.00;25.10;;;7.40;99.90;;;;;;5090115;28;20032;-54
2023/02/11 10:12:49;;;;;;;61.70;23.53;;;7.50;99.90;;;;;;5090460;28;20388;-56
2023/02/11 10:15:34;;;;;;;63.00;25.13;;;7.50;99.90;;;;;;5090189;28;20024;-54
2023/02/11 10:18:23;;;;;;;60.70;24.60;;;7.50;99.90;;;;;;5090179;28;20030;-55
2023/02/11 10:21:14;;;;;;;60.40;25.90;;;7.50;99.90;;;;;;5090224;28;20035;-56
2023/02/11 10:23:45;;;;;;;57.23;25.27;;;7.50;99.90;;;;;;5090068;28;20451;-56
2023/02/11 10:26:16;;;;;;;62.33;25.97;;;7.50;99.90;;;;;;5090140;28;20392;-55
2023/02/11 10:28:46;;;;;;;68.53;25.67;;;7.60;99.90;;;;;;5090033;28;20024;-53
2023/02/11 10:31:24;;;;;;;64.37;25.73;;;7.60;99.90;;;;;;5090033;28;20039;-55
2023/02/11 10:34:03;;;;;;;58.43;25.17;;;7.60;99.90;;;;;;5090417;28;20043;-54
2023/02/11 10:36:33;;;;;;;63.80;26.40;;;7.60;99.90;;;;;;5090902;28;20139;-57
2023/02/11 10:39:21;;;;;;;60.00;26.23;;;7.70;99.90;;;;;;5094236;28;20081;-57
2023/02/11 10:41:54;;;;;;;62.77;26.23;;;7.70;99.90;;;;;;5093953;28;20040;-55
2023/02/11 10:44:33;;;;;;;62.33;26.30;;;7.70;99.90;;;;;;5093899;28;20028;-55
2023/02/11 10:47:04;;;;;;;59.90;25.30;;;7.70;99.90;;;;;;5075422;28;20024;-55
2023/02/11 10:49:45;;;;;;;61.33;26.67;;;7.70;99.90;;;;;;5093957;28;20070;-55
2023/02/11 10:52:17;;;;;;;66.13;27.63;;;7.70;99.90;;;;;;5093747;28;20126;-55
2023/02/11 10:54:59;;;;;;;59.30;26.83;;;7.70;99.90;;;;;;5093761;28;20028;-55
2023/02/11 10:57:31;;;;;;;59.63;26.00;;;7.80;99.90;;;;;;5093153;28;20020;-57
2023/02/11 11:00:00;;;;;;;68.07;26.80;;;7.80;99.90;;;;;;5093602;28;20128;-56
2023/02/11 11:02:33;;;;;;;60.03;26.63;;;7.80;99.90;;;;;;5093840;28;20394;-54
2023/02/11 11:05:05;;;;;;;65.20;25.47;;;7.80;99.90;;;;;;5093490;28;20094;-55
2023/02/11 11:07:33;;;;;;;60.03;27.20;;;7.80;99.90;;;;;;5093309;28;20476;-55
2023/02/11 11:10:01;;;;;;;61.40;25.93;;;7.90;99.90;;;;;;5093458;28;20055;-55
2023/02/11 11:12:33;;;;;;;65.77;27.20;;;7.80;99.90;;;;;;5093485;28;20488;-55
2023/02/11 11:15:17;;;;;;;62.70;26.83;;;7.80;99.90;;;;;;5093238;28;20042;-55
2023/02/11 11:17:42;;;;;;;60.70;26.07;;;7.90;99.90;;;;;;5093293;28;20035;-56
2023/02/11 11:20:20;;;;;;;63.27;26.70;;;7.90;99.90;;;;;;5093157;28;20036;-56
2023/02/11 11:22:47;;;;;;;67.23;26.97;;;7.80;99.90;;;;;;5093470;28;20020;-56
2023/02/11 11:25:22;;;;;;;59.37;27.17;;;7.90;99.90;;;;;;5093248;28;20024;-55
2023/02/11 11:27:50;;;;;;;66.00;27.73;;;7.90;99.90;;;;;;5093038;28;20404;-55
2023/02/11 11:30:16;;;;;;;62.43;27.97;;;7.90;99.90;;;;;;5093131;28;20024;-55
2023/02/11 11:32:42;;;;;;;63.07;27.77;;;8.00;99.90;;;;;;5092929;28;20043;-54
2023/02/11 11:35:23;;;;;;;64.77;26.67;;;7.90;99.90;;;;;;5093032;28;20435;-54
2023/02/11 11:37:55;;;;;;;67.80;27.40;;;8.00;99.90;;;;;;5092804;28;20067;-55
2023/02/11 11:40:33;;;;;;;68.67;26.97;;;7.90;99.90;;;;;;5092735;28;20043;-54
2023/02/11 11:43:14;;;;;;;59.47;26.53;;;7.90;99.90;;;;;;5092859;28;20027;-54
2023/02/11 11:45:54;;;;;;;64.13;27.00;;;7.90;99.90;;;;;;5092635;28;20028;-54
2023/02/11 11:48:36;;;;;;;68.63;28.27;;;8.00;99.90;;;;;;5092602;28;20384;-55
2023/02/11 11:51:04;;;;;;;73.87;27.17;;;8.00;99.90;;;;;;5092678;28;20460;-54
2023/02/11 11:53:30;;;;;;;62.87;25.57;;;8.00;99.90;;;;;;5091217;28;20038;-55
2023/02/11 11:56:17;;;;;;;63.67;26.13;;;8.00;99.90;;;;;;5092536;28;20028;-55
2023/02/11 11:58:43;;;;;;;71.33;27.23;;;8.00;99.90;;;;;;5092309;28;20373;-54
2023/02/11 12:01:39;;;;;;;66.60;28.03;;;8.00;99.90;;;;;;5092604;28;20252;-54
2023/02/11 12:04:30;;;;;;;67.23;27.67;;;8.00;99.90;;;;;;5092189;28;20059;-54
2023/02/11 12:07:16;;;;;;;65.70;27.17;;;7.90;99.90;;;;;;5092326;28;20311;-56
2023/02/11 12:10:02;;;;;;;70.93;28.33;;;8.00;99.90;;;;;;5092308;28;20024;-56
2023/02/11 12:12:50;;;;;;;64.77;27.93;;;8.10;99.90;;;;;;5092095;28;20032;-57
2023/02/11 12:15:34;;;;;;;66.28;27.55;;;8.10;99.90;;;;;;5092211;28;20107;-56
2023/02/11 12:18:25;;;;;;;63.83;27.10;;;8.10;99.90;;;;;;5092006;28;20487;-55
2023/02/11 12:21:03;;;;;;;71.93;28.83;;;8.20;99.90;;;;;;5091956;28;20035;-55
2023/02/11 12:23:47;;;;;;;62.70;28.23;;;8.30;99.90;;;;;;5091905;28;20024;-55
2023/02/11 12:26:20;;;;;;;66.00;27.33;;;8.40;99.90;;;;;;5092112;28;20032;-55
2023/02/11 12:29:15;;;;;;;64.70;28.77;;;8.40;99.90;;;;;;5091988;28;20523;-57
2023/02/11 12:31:42;;;;;;;65.70;27.97;;;8.50;99.90;;;;;;5091913;28;20031;-55
2023/02/11 12:34:40;;;;;;;63.30;27.33;;;8.40;99.90;;;;;;5091735;28;20032;-53
2023/02/11 12:37:44;;;;;;;64.60;28.27;;;8.40;99.90;;;;;;5091635;28;20063;-54
2023/02/11 12:40:42;;;;;;;68.63;28.93;;;8.40;99.90;;;;;;5091649;28;20457;-55
2023/02/11 12:43:22;;;;;;;68.87;27.83;;;8.40;99.90;;;;;;5091806;28;20036;-53
2023/02/11 12:46:10;;;;;;;64.33;29.03;;;8.40;99.90;;;;;;5091603;28;20445;-55
2023/02/11 12:49:04;;;;;;;64.43;28.63;;;8.40;99.90;;;;;;5091380;28;20028;-53
2023/02/11 12:51:45;;;;;;;60.27;27.83;;;8.40;99.90;;;;;;5087556;28;20040;-55
2023/02/11 12:54:23;;;;;;;67.53;28.90;;;8.40;99.90;;;;;;5091176;28;20494;-54
2023/02/11 12:57:14;;;;;;;65.32;29.50;;;8.40;99.90;;;;;;5091468;28;20059;-55
2023/02/11 13:00:04;;;;;;;64.93;28.73;;;8.40;99.90;;;;;;5090670;28;20373;-56
2023/02/11 13:02:53;;;;;;;65.37;29.27;;;8.30;99.90;;;;;;5091809;28;20104;-55